createdAt,value
2023-05-16T00:00:20.613Z,11.93
2023-05-16T00:03:12.632Z,11.90
2023-05-16T00:05:44.625Z,11.89
2023-05-16T00:08:16.676Z,11.88
2023-05-16T00:10:49.106Z,11.87
2023-05-16T00:16:26.043Z,11.84
2023-05-16T00:19:00.047Z,11.84
2023-05-16T00:21:32.616Z,11.83
2023-05-16T00:24:05.249Z,11.83
2023-05-16T00:26:37.206Z,11.83
2023-05-16T00:29:09.230Z,11.83
2023-05-16T00:31:41.228Z,11.83
2023-05-16T00:34:13.379Z,11.83
2023-05-16T00:36:45.426Z,11.84
2023-05-16T00:39:17.925Z,11.84
2023-05-16T00:41:49.967Z,11.84
2023-05-16T00:44:21.930Z,11.84
2023-05-16T00:46:54.065Z,11.84
2023-05-16T00:49:26.007Z,11.85
2023-05-16T00:51:58.670Z,11.84
2023-05-16T00:54:30.545Z,11.84
2023-05-16T00:57:03.756Z,11.84
2023-05-16T00:59:36.656Z,11.83
2023-05-16T01:02:08.664Z,11.83
2023-05-16T01:04:41.594Z,11.83
2023-05-16T01:07:13.533Z,11.83
2023-05-16T01:09:46.047Z,11.82
2023-05-16T01:12:22.862Z,11.83
2023-05-16T01:15:01.834Z,11.83
2023-05-16T01:17:40.180Z,11.83
2023-05-16T01:20:23.651Z,11.84
2023-05-16T01:23:06.463Z,11.85
2023-05-16T01:25:53.568Z,11.85
2023-05-16T01:28:26.280Z,11.86
2023-05-16T01:30:58.370Z,11.86
2023-05-16T01:33:30.552Z,11.87
2023-05-16T01:36:07.649Z,11.86
2023-05-16T01:38:46.268Z,11.86
2023-05-16T01:41:22.705Z,11.84
2023-05-16T01:43:58.396Z,11.84
2023-05-16T01:46:33.255Z,11.83
2023-05-16T01:49:17.154Z,11.82
2023-05-16T01:51:55.989Z,11.82
2023-05-16T01:54:29.684Z,11.82
2023-05-16T01:57:04.402Z,11.82
2023-05-16T01:59:38.331Z,11.81
2023-05-16T02:02:10.845Z,11.82
2023-05-16T02:04:44.712Z,11.82
2023-05-16T02:07:17.061Z,11.82
2023-05-16T02:09:49.126Z,11.82
2023-05-16T02:12:21.500Z,11.81
2023-05-16T02:14:56.326Z,11.80
2023-05-16T02:17:28.386Z,11.79
2023-05-16T02:20:06.842Z,11.78
2023-05-16T02:22:39.360Z,11.77
2023-05-16T02:25:12.261Z,11.75
2023-05-16T02:27:45.809Z,11.75
2023-05-16T02:30:17.852Z,11.74
2023-05-16T02:32:50.177Z,11.73
2023-05-16T02:35:22.592Z,11.71
2023-05-16T02:37:54.482Z,11.70
2023-05-16T02:40:26.756Z,11.68
2023-05-16T02:42:58.726Z,11.67
2023-05-16T02:45:30.849Z,11.66
2023-05-16T02:48:02.838Z,11.65
2023-05-16T02:50:36.404Z,11.64
2023-05-16T02:53:08.575Z,11.63
2023-05-16T02:55:41.473Z,11.62
2023-05-16T02:58:13.366Z,11.61
2023-05-16T03:00:45.463Z,11.60
2023-05-16T03:03:17.744Z,11.56
2023-05-16T03:05:52.621Z,11.54
2023-05-16T03:08:25.427Z,11.50
2023-05-16T03:10:57.358Z,11.47
2023-05-16T03:13:30.442Z,11.43
2023-05-16T03:16:03.088Z,11.40
2023-05-16T03:18:35.131Z,11.38
2023-05-16T03:21:07.552Z,11.35
2023-05-16T03:23:39.638Z,11.33
2023-05-16T03:26:13.096Z,11.30
2023-05-16T03:28:45.423Z,11.29
2023-05-16T03:31:17.488Z,11.26
2023-05-16T03:33:49.536Z,11.25
2023-05-16T03:36:24.681Z,11.23
2023-05-16T03:38:56.741Z,11.23
2023-05-16T03:41:28.705Z,11.23
2023-05-16T03:44:00.641Z,11.23
2023-05-16T03:46:33.071Z,11.23
2023-05-16T03:49:06.261Z,11.24
2023-05-16T03:51:38.469Z,11.25
2023-05-16T03:54:10.587Z,11.26
2023-05-16T03:56:43.179Z,11.28
2023-05-16T03:59:15.457Z,11.31
2023-05-16T04:01:48.616Z,11.33
2023-05-16T04:04:21.176Z,11.37
2023-05-16T04:06:53.764Z,11.41
2023-05-16T04:09:25.832Z,11.45
2023-05-16T04:11:57.796Z,11.48
2023-05-16T04:14:29.866Z,11.53
2023-05-16T04:17:02.346Z,11.60
2023-05-16T04:19:34.511Z,11.66
2023-05-16T04:22:07.841Z,11.72
2023-05-16T04:24:39.702Z,11.79
2023-05-16T04:27:12.293Z,11.86
2023-05-16T04:29:44.725Z,11.95
2023-05-16T04:32:17.421Z,12.03
2023-05-16T04:34:50.182Z,12.12
2023-05-16T04:37:22.510Z,12.20
2023-05-16T04:39:55.440Z,12.29
2023-05-16T04:42:27.701Z,12.37
2023-05-16T04:45:00.763Z,12.43
2023-05-16T04:47:32.907Z,12.51
2023-05-16T04:50:05.450Z,12.59
2023-05-16T04:52:38.289Z,12.68
2023-05-16T04:55:12.219Z,12.77
2023-05-16T04:57:45.262Z,12.84
2023-05-16T05:00:20.774Z,12.93
2023-05-16T05:02:55.378Z,12.99
2023-05-16T05:05:29.608Z,13.08
2023-05-16T05:08:02.337Z,13.18
2023-05-16T05:10:35.451Z,13.25
2023-05-16T05:13:07.870Z,13.30
2023-05-16T05:15:41.022Z,13.35
2023-05-16T05:18:15.159Z,13.43
2023-05-16T05:20:50.003Z,13.51
2023-05-16T05:23:22.825Z,13.56
2023-05-16T05:25:57.309Z,13.60
2023-05-16T05:28:29.360Z,13.63
2023-05-16T05:31:01.326Z,13.66
2023-05-16T05:33:35.852Z,13.68
2023-05-16T05:36:08.783Z,13.74
2023-05-16T05:38:40.791Z,13.76
2023-05-16T05:41:14.552Z,13.77
2023-05-16T05:43:48.091Z,13.78
2023-05-16T05:46:20.681Z,13.74
2023-05-16T05:48:52.949Z,13.70
2023-05-16T05:51:27.761Z,13.70
2023-05-16T05:54:03.988Z,13.73
2023-05-16T05:56:40.847Z,13.76
2023-05-16T05:59:14.323Z,13.74
2023-05-16T06:01:47.390Z,13.68
2023-05-16T06:04:19.570Z,13.65
2023-05-16T06:06:52.113Z,13.67
2023-05-16T06:09:25.569Z,13.66
2023-05-16T06:12:00.608Z,13.68
2023-05-16T06:14:34.630Z,13.69
2023-05-16T06:17:08.449Z,13.69
2023-05-16T06:19:38.758Z,13.67
2023-05-16T06:22:13.676Z,13.61
2023-05-16T06:24:46.463Z,13.56
2023-05-16T06:27:19.854Z,13.55
2023-05-16T06:29:52.253Z,13.49
2023-05-16T06:32:24.347Z,13.44
2023-05-16T06:34:59.615Z,13.40
2023-05-16T06:37:34.947Z,13.37
2023-05-16T06:40:12.125Z,13.35
2023-05-16T06:42:46.001Z,13.33
2023-05-16T06:45:18.414Z,13.29
2023-05-16T06:47:51.521Z,13.26
2023-05-16T06:50:26.530Z,13.26
2023-05-16T06:52:58.502Z,13.26
2023-05-16T06:55:31.501Z,13.27
2023-05-16T06:58:03.567Z,13.26
2023-05-16T07:00:35.705Z,13.24
2023-05-16T07:03:08.189Z,13.20
2023-05-16T07:05:44.484Z,13.20
2023-05-16T07:08:16.597Z,13.23
2023-05-16T07:10:48.794Z,13.23
2023-05-16T07:13:21.266Z,13.19
2023-05-16T07:15:53.219Z,13.14
2023-05-16T07:18:25.975Z,13.12
2023-05-16T07:20:58.408Z,13.12
2023-05-16T07:23:32.758Z,13.17
2023-05-16T07:26:05.503Z,13.23
2023-05-16T07:28:38.196Z,13.24
2023-05-16T07:31:11.940Z,13.25
2023-05-16T07:33:44.047Z,13.29
2023-05-16T07:36:17.560Z,13.32
2023-05-16T07:38:55.237Z,13.33
2023-05-16T07:41:27.373Z,13.34
2023-05-16T07:43:59.390Z,13.35
2023-05-16T07:46:33.218Z,13.45
2023-05-16T07:49:05.854Z,13.57
2023-05-16T07:51:38.294Z,13.72
2023-05-16T07:54:10.905Z,13.91
2023-05-16T07:56:43.278Z,14.07
2023-05-16T07:59:15.764Z,14.19
2023-05-16T08:01:48.340Z,14.32
2023-05-16T08:04:21.094Z,14.41
2023-05-16T08:06:53.145Z,14.48
2023-05-16T08:09:25.121Z,14.49
2023-05-16T08:11:57.638Z,14.45
2023-05-16T08:14:30.680Z,14.40
2023-05-16T08:17:03.119Z,14.34
2023-05-16T08:19:37.204Z,14.33
2023-05-16T08:22:10.430Z,14.36
2023-05-16T08:24:43.388Z,14.42
2023-05-16T08:27:16.025Z,14.41
2023-05-16T08:29:48.979Z,14.36
2023-05-16T08:32:24.432Z,14.36
2023-05-16T08:34:57.464Z,14.35
2023-05-16T08:37:29.611Z,14.35
2023-05-16T08:40:04.102Z,14.32
2023-05-16T08:42:37.233Z,14.30
2023-05-16T08:45:11.983Z,14.29
2023-05-16T08:47:46.429Z,14.35
2023-05-16T08:50:19.344Z,14.44
2023-05-16T08:52:54.359Z,14.49
2023-05-16T08:55:28.142Z,14.55
2023-05-16T08:58:01.364Z,14.65
2023-05-16T09:00:34.369Z,14.71
2023-05-16T09:03:07.497Z,14.72
2023-05-16T09:05:40.403Z,14.76
2023-05-16T09:08:12.764Z,14.80
2023-05-16T09:10:44.884Z,14.81
2023-05-16T09:13:16.835Z,14.87
2023-05-16T09:15:50.170Z,14.88
2023-05-16T09:18:24.669Z,14.88
2023-05-16T09:20:57.912Z,14.96
2023-05-16T09:23:30.226Z,15.09
2023-05-16T09:26:02.238Z,15.17
2023-05-16T09:28:35.069Z,15.22
2023-05-16T09:31:07.368Z,15.29
2023-05-16T09:33:42.583Z,15.41
2023-05-16T09:36:15.776Z,15.53
2023-05-16T09:38:48.922Z,15.65
2023-05-16T09:41:22.575Z,15.75
2023-05-16T09:43:55.307Z,15.86
2023-05-16T09:46:30.673Z,15.96
2023-05-16T09:49:02.586Z,16.04
2023-05-16T09:51:34.642Z,16.17
2023-05-16T09:54:11.094Z,16.29
2023-05-16T09:56:53.468Z,16.31
2023-05-16T09:59:26.137Z,16.32
2023-05-16T10:02:01.014Z,16.29
2023-05-16T10:04:35.229Z,16.26
2023-05-16T10:07:09.919Z,16.19
2023-05-16T10:09:42.331Z,16.18
2023-05-16T10:12:16.182Z,16.27
2023-05-16T10:14:47.429Z,16.35
2023-05-16T10:17:21.030Z,16.36
2023-05-16T10:19:53.572Z,16.39
2023-05-16T10:22:26.307Z,16.34
2023-05-16T10:25:02.433Z,16.25
2023-05-16T10:27:35.138Z,16.18
2023-05-16T10:30:08.529Z,16.18
2023-05-16T10:32:42.691Z,16.23
2023-05-16T10:35:15.344Z,16.25
2023-05-16T10:37:47.383Z,16.19
2023-05-16T10:40:20.056Z,16.16
2023-05-16T10:42:59.266Z,16.12
2023-05-16T10:45:31.647Z,16.10
2023-05-16T10:48:05.669Z,16.07
2023-05-16T10:50:37.518Z,16.04
2023-05-16T10:53:22.409Z,15.98
2023-05-16T10:56:12.704Z,15.96
2023-05-16T10:58:46.442Z,15.98
2023-05-16T11:01:26.465Z,16.00
2023-05-16T11:04:13.282Z,16.02
2023-05-16T11:06:51.571Z,16.08
2023-05-16T11:09:26.987Z,16.16
2023-05-16T11:12:04.636Z,16.19
2023-05-16T11:14:43.726Z,16.28
2023-05-16T11:17:17.858Z,16.32
2023-05-16T11:19:52.307Z,16.37
2023-05-16T11:22:27.593Z,16.44
2023-05-16T11:25:03.034Z,16.56
2023-05-16T11:27:36.783Z,16.69
2023-05-16T11:30:17.591Z,16.75
2023-05-16T11:32:50.985Z,16.73
2023-05-16T11:35:23.405Z,16.75
2023-05-16T11:37:55.710Z,16.71
2023-05-16T11:40:27.940Z,16.69
2023-05-16T11:43:06.469Z,16.68
2023-05-16T11:45:39.485Z,16.66
2023-05-16T11:48:19.014Z,16.70
2023-05-16T11:50:57.173Z,16.77
2023-05-16T11:53:30.419Z,16.86
2023-05-16T11:56:03.555Z,16.92
2023-05-16T11:58:35.870Z,17.08
2023-05-16T12:01:10.495Z,17.27
2023-05-16T12:03:43.330Z,17.41
2023-05-16T12:06:15.989Z,17.47
2023-05-16T12:08:53.930Z,17.61
2023-05-16T12:11:27.375Z,17.86
2023-05-16T12:14:01.244Z,18.14
2023-05-16T12:16:33.414Z,18.37
2023-05-16T12:19:05.998Z,18.67
2023-05-16T12:21:39.958Z,18.96
2023-05-16T12:24:13.699Z,19.15
2023-05-16T12:26:45.053Z,19.29
2023-05-16T12:29:17.150Z,19.24
2023-05-16T12:31:49.135Z,19.05
2023-05-16T12:34:23.449Z,19.02
2023-05-16T12:36:54.666Z,19.21
2023-05-16T12:39:27.062Z,19.43
2023-05-16T12:41:59.055Z,19.49
2023-05-16T12:44:34.088Z,19.46
2023-05-16T12:47:07.581Z,19.29
2023-05-16T12:49:39.925Z,19.01
2023-05-16T12:52:18.907Z,18.71
2023-05-16T12:54:51.467Z,18.57
2023-05-16T12:57:24.003Z,18.57
2023-05-16T12:59:56.284Z,18.47
2023-05-16T13:02:30.228Z,18.30
2023-05-16T13:05:02.680Z,18.15
2023-05-16T13:07:34.865Z,18.13
2023-05-16T13:10:10.799Z,18.10
2023-05-16T13:12:43.734Z,18.06
2023-05-16T13:15:17.481Z,18.09
2023-05-16T13:17:51.609Z,18.11
2023-05-16T13:20:24.791Z,18.10
2023-05-16T13:22:57.534Z,18.13
2023-05-16T13:25:34.980Z,18.22
2023-05-16T13:28:07.078Z,18.40
2023-05-16T13:30:41.081Z,18.70
2023-05-16T13:33:14.552Z,18.96
2023-05-16T13:35:47.069Z,19.18
2023-05-16T13:38:20.209Z,19.32
2023-05-16T13:40:52.331Z,19.31
2023-05-16T13:43:27.532Z,19.27
2023-05-16T13:45:59.449Z,19.26
2023-05-16T13:48:31.357Z,19.29
2023-05-16T13:51:06.913Z,19.33
2023-05-16T13:53:39.415Z,19.36
2023-05-16T13:56:11.773Z,19.24
2023-05-16T13:58:59.358Z,19.12
2023-05-16T14:01:33.295Z,18.98
2023-05-16T14:04:05.812Z,19.00
2023-05-16T14:06:38.881Z,19.15
2023-05-16T14:09:11.090Z,19.20
2023-05-16T14:11:43.738Z,19.20
2023-05-16T14:14:17.795Z,19.20
2023-05-16T14:16:50.272Z,19.27
2023-05-16T14:19:22.414Z,19.43
2023-05-16T14:21:55.726Z,19.59
2023-05-16T14:24:28.804Z,19.74
2023-05-16T14:27:02.085Z,19.84
2023-05-16T14:29:33.256Z,19.82
2023-05-16T14:32:06.074Z,19.72
2023-05-16T14:34:39.426Z,19.68
2023-05-16T14:37:13.665Z,19.69
2023-05-16T14:39:47.519Z,19.62
2023-05-16T14:42:22.424Z,19.52
2023-05-16T14:44:54.735Z,19.49
2023-05-16T14:47:27.653Z,19.52
2023-05-16T14:50:05.171Z,19.47
2023-05-16T14:52:39.168Z,19.39
2023-05-16T14:55:14.068Z,19.33
2023-05-16T14:57:52.442Z,19.29
2023-05-16T15:00:32.239Z,19.27
2023-05-16T15:03:05.288Z,19.33
2023-05-16T15:05:37.714Z,19.37
2023-05-16T15:08:10.221Z,19.42
2023-05-16T15:10:42.946Z,19.48
2023-05-16T15:13:15.801Z,19.49
2023-05-16T15:15:51.903Z,19.44
2023-05-16T15:18:25.589Z,19.41
2023-05-16T15:20:59.024Z,19.39
2023-05-16T15:23:31.902Z,19.46
2023-05-16T15:26:05.069Z,19.54
2023-05-16T15:28:41.471Z,19.59
2023-05-16T15:31:13.648Z,19.61
2023-05-16T15:33:48.418Z,19.62
2023-05-16T15:36:20.740Z,19.66
2023-05-16T15:38:53.230Z,19.61
2023-05-16T15:41:37.278Z,19.59
2023-05-16T15:44:22.594Z,19.51
2023-05-16T15:46:55.733Z,19.46
2023-05-16T15:49:29.700Z,19.45
2023-05-16T15:52:04.747Z,19.43
2023-05-16T15:54:37.952Z,19.35
2023-05-16T15:57:10.854Z,19.27
2023-05-16T15:59:43.884Z,19.19
2023-05-16T16:02:16.220Z,19.18
2023-05-16T16:04:50.227Z,19.17
2023-05-16T16:07:22.730Z,19.14
2023-05-16T16:09:54.917Z,19.13
2023-05-16T16:12:27.558Z,19.12
2023-05-16T16:14:59.504Z,19.06
2023-05-16T16:17:31.931Z,18.95
2023-05-16T16:20:04.980Z,18.85
2023-05-16T16:22:37.089Z,18.78
2023-05-16T16:25:11.893Z,18.72
2023-05-16T16:27:45.552Z,18.71
2023-05-16T16:30:18.212Z,18.70
2023-05-16T16:32:51.103Z,18.69
2023-05-16T16:35:26.356Z,18.68
2023-05-16T16:38:06.261Z,18.61
2023-05-16T16:40:40.422Z,18.52
2023-05-16T16:43:11.600Z,18.44
2023-05-16T16:45:45.734Z,18.37
2023-05-16T16:48:18.103Z,18.34
2023-05-16T16:50:53.136Z,18.34
2023-05-16T16:53:26.669Z,18.36
2023-05-16T16:56:00.089Z,18.37
2023-05-16T16:58:32.611Z,18.38
2023-05-16T17:01:07.461Z,18.37
2023-05-16T17:03:39.852Z,18.34
2023-05-16T17:06:13.578Z,18.30
2023-05-16T17:08:45.871Z,18.29
2023-05-16T17:11:22.990Z,18.24
2023-05-16T17:14:00.976Z,18.20
2023-05-16T17:16:36.977Z,18.14
2023-05-16T17:19:10.194Z,18.09
2023-05-16T17:21:43.798Z,18.07
2023-05-16T17:24:16.617Z,18.06
2023-05-16T17:26:50.915Z,18.04
2023-05-16T17:29:24.225Z,18.01
2023-05-16T17:31:57.228Z,17.98
2023-05-16T17:34:30.281Z,17.97
2023-05-16T17:37:06.150Z,17.96
2023-05-16T17:39:39.370Z,17.94
2023-05-16T17:42:12.341Z,17.90
2023-05-16T17:44:46.262Z,17.85
2023-05-16T17:47:22.006Z,17.81
2023-05-16T17:49:54.638Z,17.76
2023-05-16T17:52:29.444Z,17.72
2023-05-16T17:55:07.427Z,17.69
2023-05-16T17:57:42.103Z,17.64
2023-05-16T18:00:18.484Z,17.60
2023-05-16T18:02:53.078Z,17.57
2023-05-16T18:05:26.998Z,17.53
2023-05-16T18:08:06.594Z,17.49
2023-05-16T18:10:51.704Z,17.45
2023-05-16T18:13:25.763Z,17.40
2023-05-16T18:15:58.161Z,17.37
2023-05-16T18:18:34.566Z,17.33
2023-05-16T18:21:07.059Z,17.30
2023-05-16T18:23:40.356Z,17.27
2023-05-16T18:26:17.638Z,17.23
2023-05-16T18:28:53.700Z,17.19
2023-05-16T18:31:33.729Z,17.16
2023-05-16T18:34:08.801Z,17.12
2023-05-16T18:36:41.469Z,17.08
2023-05-16T18:39:14.760Z,17.05
2023-05-16T18:41:48.647Z,17.03
2023-05-16T18:44:19.314Z,17.00
2023-05-16T18:46:52.641Z,16.95
2023-05-16T18:49:33.879Z,16.91
2023-05-16T18:52:09.149Z,16.87
2023-05-16T18:54:43.268Z,16.84
2023-05-16T18:57:15.552Z,16.81
2023-05-16T18:59:47.549Z,16.78
2023-05-16T19:02:30.280Z,16.75
2023-05-16T19:05:14.526Z,16.71
2023-05-16T19:07:46.751Z,16.69
2023-05-16T19:10:19.004Z,16.68
2023-05-16T19:12:51.060Z,16.65
2023-05-16T19:15:24.992Z,16.64
2023-05-16T19:17:58.037Z,16.62
2023-05-16T19:20:31.142Z,16.60
2023-05-16T19:23:03.349Z,16.59
2023-05-16T19:25:35.559Z,16.58
2023-05-16T19:28:09.985Z,16.56
2023-05-16T19:30:43.069Z,16.54
2023-05-16T19:33:15.150Z,16.53
2023-05-16T19:35:47.428Z,16.50
2023-05-16T19:38:20.103Z,16.48
2023-05-16T19:40:53.261Z,16.45
2023-05-16T19:43:25.448Z,16.43
2023-05-16T19:45:57.985Z,16.41
2023-05-16T19:48:30.270Z,16.38
2023-05-16T19:51:02.601Z,16.37
2023-05-16T19:53:34.570Z,16.36
2023-05-16T19:56:08.184Z,16.34
2023-05-16T19:58:43.950Z,16.32
2023-05-16T20:01:16.486Z,16.30
2023-05-16T20:03:48.349Z,16.28
2023-05-16T20:06:20.633Z,16.27
2023-05-16T20:08:52.587Z,16.25
2023-05-16T20:11:24.710Z,16.22
2023-05-16T20:13:59.902Z,16.20
2023-05-16T20:16:32.612Z,16.18
2023-05-16T20:19:04.753Z,16.15
2023-05-16T20:21:37.106Z,16.13
2023-05-16T20:24:10.209Z,16.10
2023-05-16T20:26:42.313Z,16.08
2023-05-16T20:29:14.778Z,16.06
2023-05-16T20:31:47.399Z,16.03
2023-05-16T20:34:20.548Z,16.00
2023-05-16T20:36:53.216Z,15.97
2023-05-16T20:39:26.286Z,15.95
2023-05-16T20:41:58.417Z,15.93
2023-05-16T20:44:30.387Z,15.91
2023-05-16T20:47:02.435Z,15.90
2023-05-16T20:49:36.423Z,15.88
2023-05-16T20:52:09.441Z,15.86
2023-05-16T20:54:42.690Z,15.82
2023-05-16T20:57:15.100Z,15.81
2023-05-16T20:59:47.591Z,15.78
2023-05-16T21:02:21.751Z,15.75
2023-05-16T21:04:52.441Z,15.73
2023-05-16T21:07:24.726Z,15.69
2023-05-16T21:09:56.878Z,15.67
2023-05-16T21:12:28.988Z,15.65
2023-05-16T21:15:00.947Z,15.64
2023-05-16T21:17:32.958Z,15.62
2023-05-16T21:20:05.333Z,15.60
2023-05-16T21:22:37.454Z,15.57
2023-05-16T21:25:10.140Z,15.54
2023-05-16T21:27:42.367Z,15.51
2023-05-16T21:30:16.088Z,15.48
2023-05-16T21:32:48.834Z,15.45
2023-05-16T21:35:24.234Z,15.43
2023-05-16T21:37:56.336Z,15.43
2023-05-16T21:40:28.964Z,15.42
2023-05-16T21:43:01.004Z,15.39
2023-05-16T21:45:32.879Z,15.35
2023-05-16T21:48:05.294Z,15.31
2023-05-16T21:50:37.437Z,15.26
2023-05-16T21:53:09.209Z,15.24
2023-05-16T21:55:41.849Z,15.24
2023-05-16T21:58:13.819Z,15.23
2023-05-16T22:00:46.876Z,15.23
2023-05-16T22:03:21.191Z,15.23
2023-05-16T22:05:55.845Z,15.22
2023-05-16T22:08:27.870Z,15.21
2023-05-16T22:10:59.867Z,15.19
2023-05-16T22:13:31.740Z,15.16
2023-05-16T22:16:05.313Z,15.15
2023-05-16T22:18:36.627Z,15.15
2023-05-16T22:21:08.966Z,15.12
2023-05-16T22:23:41.200Z,15.10
2023-05-16T22:26:13.505Z,15.08
2023-05-16T22:28:45.989Z,15.07
2023-05-16T22:31:17.836Z,15.05
2023-05-16T22:33:51.304Z,15.04
2023-05-16T22:36:23.314Z,15.01
2023-05-16T22:38:56.059Z,15.00
2023-05-16T22:41:38.148Z,14.98
2023-05-16T22:44:10.420Z,14.97
2023-05-16T22:46:42.672Z,14.95
2023-05-16T22:49:16.050Z,14.93
2023-05-16T22:51:49.301Z,14.92
2023-05-16T22:54:21.785Z,14.92
2023-05-16T22:56:53.798Z,14.92
2023-05-16T22:59:25.778Z,14.93
2023-05-16T23:01:58.685Z,14.94
2023-05-16T23:04:30.722Z,14.94
2023-05-16T23:07:02.750Z,14.96
2023-05-16T23:09:34.695Z,14.96
2023-05-16T23:12:07.757Z,14.96
2023-05-16T23:14:39.929Z,14.95
2023-05-16T23:17:12.704Z,14.92
2023-05-16T23:19:45.071Z,14.90
2023-05-16T23:22:17.150Z,14.89
2023-05-16T23:24:51.721Z,14.88
2023-05-16T23:27:24.411Z,14.88
2023-05-16T23:29:57.459Z,14.86
2023-05-16T23:32:29.928Z,14.84
2023-05-16T23:35:03.634Z,14.82
2023-05-16T23:37:35.555Z,14.80
2023-05-16T23:40:09.857Z,14.78
2023-05-16T23:42:42.016Z,14.76
2023-05-16T23:45:15.611Z,14.74
2023-05-16T23:47:47.468Z,14.72
2023-05-16T23:50:21.127Z,14.69
2023-05-16T23:52:53.455Z,14.65
2023-05-16T23:55:25.829Z,14.62
2023-05-16T23:57:58.036Z,14.59
